sensor_id;sensor_type;location;lat;lon;timestamp;P1;durP1;ratioP1;P2;durP2;ratioP2
13566;SDS011;6855;48.112;11.298;2024-03-22T00:02:08;23.53;;;13.10;;
13566;SDS011;6855;48.112;11.298;2024-03-22T00:04:34;19.30;;;11.87;;
13566;SDS011;6855;48.112;11.298;2024-03-22T00:07:01;29.53;;;14.23;;
13566;SDS011;6855;48.112;11.298;2024-03-22T00:09:28;23.93;;;14.07;;
13566;SDS011;6855;48.112;11.298;2024-03-22T00:11:55;24.40;;;13.93;;
13566;SDS011;6855;48.112;11.298;2024-03-22T00:14:21;25.37;;;12.10;;
13566;SDS011;6855;48.112;11.298;2024-03-22T00:16:48;20.80;;;13.37;;
13566;SDS011;6855;48.112;11.298;2024-03-22T00:19:16;20.63;;;11.77;;
13566;SDS011;6855;48.112;11.298;2024-03-22T00:21:43;26.73;;;13.30;;
13566;SDS011;6855;48.112;11.298;2024-03-22T00:24:09;20.77;;;12.13;;
13566;SDS011;6855;48.112;11.298;2024-03-22T00:26:37;20.40;;;12.30;;
13566;SDS011;6855;48.112;11.298;2024-03-22T00:29:03;17.53;;;11.30;;
13566;SDS011;6855;48.112;11.298;2024-03-22T00:31:30;21.80;;;12.73;;
13566;SDS011;6855;48.112;11.298;2024-03-22T00:33:56;22.47;;;12.97;;
13566;SDS011;6855;48.112;11.298;2024-03-22T00:36:25;21.20;;;12.20;;
13566;SDS011;6855;48.112;11.298;2024-03-22T00:38:51;21.50;;;12.37;;
13566;SDS011;6855;48.112;11.298;2024-03-22T00:41:18;20.67;;;13.47;;
13566;SDS011;6855;48.112;11.298;2024-03-22T00:43:45;22.73;;;12.83;;
13566;SDS011;6855;48.112;11.298;2024-03-22T00:46:12;20.40;;;11.23;;
13566;SDS011;6855;48.112;11.298;2024-03-22T00:48:38;19.63;;;12.97;;
13566;SDS011;6855;48.112;11.298;2024-03-22T00:51:05;21.83;;;11.77;;
13566;SDS011;6855;48.112;11.298;2024-03-22T00:53:33;19.23;;;12.03;;
13566;SDS011;6855;48.112;11.298;2024-03-22T00:56:00;20.53;;;11.90;;
13566;SDS011;6855;48.112;11.298;2024-03-22T00:58:27;23.20;;;12.30;;
13566;SDS011;6855;48.112;11.298;2024-03-22T01:00:54;22.10;;;12.87;;
13566;SDS011;6855;48.112;11.298;2024-03-22T01:03:21;21.83;;;13.20;;
13566;SDS011;6855;48.112;11.298;2024-03-22T01:05:48;25.10;;;13.30;;
13566;SDS011;6855;48.112;11.298;2024-03-22T01:08:14;25.20;;;13.23;;
13566;SDS011;6855;48.112;11.298;2024-03-22T01:10:43;19.37;;;11.77;;
13566;SDS011;6855;48.112;11.298;2024-03-22T01:13:09;27.67;;;12.73;;
13566;SDS011;6855;48.112;11.298;2024-03-22T01:15:36;19.70;;;12.67;;
13566;SDS011;6855;48.112;11.298;2024-03-22T01:18:03;19.23;;;11.80;;
13566;SDS011;6855;48.112;11.298;2024-03-22T01:20:30;19.93;;;11.60;;
13566;SDS011;6855;48.112;11.298;2024-03-22T01:22:56;24.60;;;13.03;;
13566;SDS011;6855;48.112;11.298;2024-03-22T01:25:23;21.10;;;12.63;;
13566;SDS011;6855;48.112;11.298;2024-03-22T01:27:51;28.07;;;12.90;;
13566;SDS011;6855;48.112;11.298;2024-03-22T01:30:18;17.43;;;11.87;;
13566;SDS011;6855;48.112;11.298;2024-03-22T01:32:44;26.03;;;12.90;;
13566;SDS011;6855;48.112;11.298;2024-03-22T01:35:11;20.60;;;11.90;;
13566;SDS011;6855;48.112;11.298;2024-03-22T01:37:37;20.37;;;12.10;;
13566;SDS011;6855;48.112;11.298;2024-03-22T01:40:05;22.93;;;12.37;;
13566;SDS011;6855;48.112;11.298;2024-03-22T01:42:32;23.10;;;12.67;;
13566;SDS011;6855;48.112;11.298;2024-03-22T01:45:00;21.60;;;11.33;;
13566;SDS011;6855;48.112;11.298;2024-03-22T01:47:27;27.03;;;12.20;;
13566;SDS011;6855;48.112;11.298;2024-03-22T01:49:54;22.50;;;12.27;;
13566;SDS011;6855;48.112;11.298;2024-03-22T01:52:21;20.00;;;12.57;;
13566;SDS011;6855;48.112;11.298;2024-03-22T01:54:48;19.37;;;11.97;;
13566;SDS011;6855;48.112;11.298;2024-03-22T01:57:15;26.00;;;13.20;;
13566;SDS011;6855;48.112;11.298;2024-03-22T01:59:42;24.07;;;11.90;;
13566;SDS011;6855;48.112;11.298;2024-03-22T02:02:10;20.73;;;12.67;;
13566;SDS011;6855;48.112;11.298;2024-03-22T02:04:37;20.40;;;13.07;;
13566;SDS011;6855;48.112;11.298;2024-03-22T02:07:04;23.63;;;11.93;;
13566;SDS011;6855;48.112;11.298;2024-03-22T02:09:31;23.03;;;12.97;;
13566;SDS011;6855;48.112;11.298;2024-03-22T02:11:57;23.97;;;14.10;;
13566;SDS011;6855;48.112;11.298;2024-03-22T02:14:24;20.30;;;12.13;;
13566;SDS011;6855;48.112;11.298;2024-03-22T02:16:50;22.70;;;12.73;;
13566;SDS011;6855;48.112;11.298;2024-03-22T02:19:19;22.17;;;11.63;;
13566;SDS011;6855;48.112;11.298;2024-03-22T02:21:45;22.23;;;12.83;;
13566;SDS011;6855;48.112;11.298;2024-03-22T02:24:14;20.40;;;12.80;;
13566;SDS011;6855;48.112;11.298;2024-03-22T02:26:40;21.30;;;12.13;;
13566;SDS011;6855;48.112;11.298;2024-03-22T02:29:07;22.50;;;11.87;;
13566;SDS011;6855;48.112;11.298;2024-03-22T02:31:33;21.37;;;12.37;;
13566;SDS011;6855;48.112;11.298;2024-03-22T02:34:00;26.77;;;11.30;;
13566;SDS011;6855;48.112;11.298;2024-03-22T02:36:27;25.10;;;13.07;;
13566;SDS011;6855;48.112;11.298;2024-03-22T02:38:54;25.63;;;12.97;;
13566;SDS011;6855;48.112;11.298;2024-03-22T02:41:22;20.00;;;11.70;;
13566;SDS011;6855;48.112;11.298;2024-03-22T02:43:49;18.33;;;11.47;;
13566;SDS011;6855;48.112;11.298;2024-03-22T02:46:15;19.23;;;10.77;;
13566;SDS011;6855;48.112;11.298;2024-03-22T02:48:43;17.33;;;10.90;;
13566;SDS011;6855;48.112;11.298;2024-03-22T02:51:09;24.17;;;11.93;;
13566;SDS011;6855;48.112;11.298;2024-03-22T02:53:36;21.27;;;12.40;;
13566;SDS011;6855;48.112;11.298;2024-03-22T02:56:02;19.60;;;10.80;;
13566;SDS011;6855;48.112;11.298;2024-03-22T02:58:31;18.17;;;11.07;;
13566;SDS011;6855;48.112;11.298;2024-03-22T03:00:57;23.90;;;12.00;;
13566;SDS011;6855;48.112;11.298;2024-03-22T03:03:24;22.53;;;11.77;;
13566;SDS011;6855;48.112;11.298;2024-03-22T03:05:50;25.43;;;11.23;;
13566;SDS011;6855;48.112;11.298;2024-03-22T03:08:18;17.73;;;10.63;;
13566;SDS011;6855;48.112;11.298;2024-03-22T03:10:44;21.37;;;11.00;;
13566;SDS011;6855;48.112;11.298;2024-03-22T03:13:11;25.20;;;12.10;;
13566;SDS011;6855;48.112;11.298;2024-03-22T03:15:39;19.67;;;11.77;;
13566;SDS011;6855;48.112;11.298;2024-03-22T03:18:06;15.97;;;10.53;;
13566;SDS011;6855;48.112;11.298;2024-03-22T03:20:32;18.57;;;10.80;;
13566;SDS011;6855;48.112;11.298;2024-03-22T03:22:59;16.77;;;9.93;;
13566;SDS011;6855;48.112;11.298;2024-03-22T03:25:26;17.67;;;9.80;;
13566;SDS011;6855;48.112;11.298;2024-03-22T03:27:54;17.27;;;10.30;;
13566;SDS011;6855;48.112;11.298;2024-03-22T03:30:20;18.73;;;9.80;;
13566;SDS011;6855;48.112;11.298;2024-03-22T03:32:48;22.90;;;9.90;;
13566;SDS011;6855;48.112;11.298;2024-03-22T03:35:14;15.40;;;9.20;;
13566;SDS011;6855;48.112;11.298;2024-03-22T03:37:42;15.90;;;9.27;;
13566;SDS011;6855;48.112;11.298;2024-03-22T03:40:08;13.43;;;8.80;;
13566;SDS011;6855;48.112;11.298;2024-03-22T03:42:35;15.07;;;9.37;;
13566;SDS011;6855;48.112;11.298;2024-03-22T03:45:01;16.37;;;9.67;;
13566;SDS011;6855;48.112;11.298;2024-03-22T03:47:29;15.47;;;9.17;;
13566;SDS011;6855;48.112;11.298;2024-03-22T03:49:56;14.70;;;8.80;;
13566;SDS011;6855;48.112;11.298;2024-03-22T03:52:24;12.87;;;7.70;;
13566;SDS011;6855;48.112;11.298;2024-03-22T03:54:50;11.90;;;7.50;;
13566;SDS011;6855;48.112;11.298;2024-03-22T03:57:17;15.97;;;9.43;;
13566;SDS011;6855;48.112;11.298;2024-03-22T03:59:43;15.27;;;8.40;;
13566;SDS011;6855;48.112;11.298;2024-03-22T04:02:10;16.63;;;8.60;;
13566;SDS011;6855;48.112;11.298;2024-03-22T04:04:37;13.00;;;7.70;;
13566;SDS011;6855;48.112;11.298;2024-03-22T04:07:05;14.17;;;8.20;;
13566;SDS011;6855;48.112;11.298;2024-03-22T04:09:31;15.67;;;7.60;;
13566;SDS011;6855;48.112;11.298;2024-03-22T04:11:59;15.03;;;8.70;;
13566;SDS011;6855;48.112;11.298;2024-03-22T04:14:25;12.17;;;7.50;;
13566;SDS011;6855;48.112;11.298;2024-03-22T04:16:52;12.37;;;8.40;;
13566;SDS011;6855;48.112;11.298;2024-03-22T04:19:19;13.73;;;7.70;;
13566;SDS011;6855;48.112;11.298;2024-03-22T04:21:46;18.03;;;9.10;;
13566;SDS011;6855;48.112;11.298;2024-03-22T04:24:14;12.27;;;8.00;;
13566;SDS011;6855;48.112;11.298;2024-03-22T04:26:41;12.63;;;6.73;;
13566;SDS011;6855;48.112;11.298;2024-03-22T04:29:07;17.20;;;8.27;;
13566;SDS011;6855;48.112;11.298;2024-03-22T04:31:35;14.47;;;7.07;;
13566;SDS011;6855;48.112;11.298;2024-03-22T04:34:01;12.63;;;7.00;;
13566;SDS011;6855;48.112;11.298;2024-03-22T04:36:30;15.20;;;7.90;;
13566;SDS011;6855;48.112;11.298;2024-03-22T04:38:57;13.87;;;8.43;;
13566;SDS011;6855;48.112;11.298;2024-03-22T04:41:25;15.60;;;7.70;;
13566;SDS011;6855;48.112;11.298;2024-03-22T04:43:51;14.50;;;7.93;;
13566;SDS011;6855;48.112;11.298;2024-03-22T04:46:19;14.77;;;7.83;;
13566;SDS011;6855;48.112;11.298;2024-03-22T04:48:45;18.83;;;8.73;;
13566;SDS011;6855;48.112;11.298;2024-03-22T04:51:12;16.13;;;8.67;;
13566;SDS011;6855;48.112;11.298;2024-03-22T04:53:38;13.30;;;8.00;;
13566;SDS011;6855;48.112;11.298;2024-03-22T04:56:06;21.03;;;9.07;;
13566;SDS011;6855;48.112;11.298;2024-03-22T04:58:34;15.40;;;9.10;;
13566;SDS011;6855;48.112;11.298;2024-03-22T05:01:01;16.57;;;9.20;;
13566;SDS011;6855;48.112;11.298;2024-03-22T05:03:27;19.27;;;10.30;;
13566;SDS011;6855;48.112;11.298;2024-03-22T05:05:54;19.37;;;10.77;;
13566;SDS011;6855;48.112;11.298;2024-03-22T05:08:21;18.07;;;10.70;;
13566;SDS011;6855;48.112;11.298;2024-03-22T05:10:48;21.23;;;10.67;;
13566;SDS011;6855;48.112;11.298;2024-03-22T05:13:15;18.70;;;10.70;;
13566;SDS011;6855;48.112;11.298;2024-03-22T05:15:43;23.10;;;12.57;;
13566;SDS011;6855;48.112;11.298;2024-03-22T05:18:10;19.03;;;10.37;;
13566;SDS011;6855;48.112;11.298;2024-03-22T05:20:37;21.43;;;11.40;;
13566;SDS011;6855;48.112;11.298;2024-03-22T05:23:03;21.90;;;12.10;;
13566;SDS011;6855;48.112;11.298;2024-03-22T05:25:30;23.90;;;11.50;;
13566;SDS011;6855;48.112;11.298;2024-03-22T05:27:56;18.67;;;11.20;;
13566;SDS011;6855;48.112;11.298;2024-03-22T05:30:24;19.63;;;11.90;;
13566;SDS011;6855;48.112;11.298;2024-03-22T05:32:51;25.03;;;11.90;;
13566;SDS011;6855;48.112;11.298;2024-03-22T05:35:18;26.40;;;11.60;;
13566;SDS011;6855;48.112;11.298;2024-03-22T05:37:44;23.27;;;12.57;;
13566;SDS011;6855;48.112;11.298;2024-03-22T05:40:13;23.80;;;13.10;;
13566;SDS011;6855;48.112;11.298;2024-03-22T05:42:39;17.17;;;10.90;;
13566;SDS011;6855;48.112;11.298;2024-03-22T05:45:06;20.20;;;12.70;;
13566;SDS011;6855;48.112;11.298;2024-03-22T05:47:33;22.50;;;12.07;;
13566;SDS011;6855;48.112;11.298;2024-03-22T05:50:04;21.83;;;12.57;;
13566;SDS011;6855;48.112;11.298;2024-03-22T05:52:32;23.50;;;14.20;;
13566;SDS011;6855;48.112;11.298;2024-03-22T05:55:00;22.30;;;12.43;;
13566;SDS011;6855;48.112;11.298;2024-03-22T05:57:26;23.17;;;13.60;;
13566;SDS011;6855;48.112;11.298;2024-03-22T05:59:53;23.93;;;14.13;;
13566;SDS011;6855;48.112;11.298;2024-03-22T06:02:21;20.07;;;12.33;;
13566;SDS011;6855;48.112;11.298;2024-03-22T06:04:50;24.15;;;15.30;;
13566;SDS011;6855;48.112;11.298;2024-03-22T06:07:17;24.20;;;13.30;;
13566;SDS011;6855;48.112;11.298;2024-03-22T06:09:44;18.47;;;11.60;;
13566;SDS011;6855;48.112;11.298;2024-03-22T06:12:16;19.47;;;13.10;;
13566;SDS011;6855;48.112;11.298;2024-03-22T06:14:43;20.03;;;11.30;;
13566;SDS011;6855;48.112;11.298;2024-03-22T06:17:10;17.53;;;10.43;;
13566;SDS011;6855;48.112;11.298;2024-03-22T06:19:37;20.27;;;11.77;;
13566;SDS011;6855;48.112;11.298;2024-03-22T06:22:04;18.30;;;11.50;;
13566;SDS011;6855;48.112;11.298;2024-03-22T06:24:32;17.70;;;10.83;;
13566;SDS011;6855;48.112;11.298;2024-03-22T06:26:59;18.90;;;11.80;;
13566;SDS011;6855;48.112;11.298;2024-03-22T06:29:26;22.17;;;12.47;;
13566;SDS011;6855;48.112;11.298;2024-03-22T06:31:53;25.50;;;13.80;;
13566;SDS011;6855;48.112;11.298;2024-03-22T06:34:20;19.13;;;12.27;;
13566;SDS011;6855;48.112;11.298;2024-03-22T06:36:46;17.60;;;11.20;;
13566;SDS011;6855;48.112;11.298;2024-03-22T06:39:13;15.57;;;10.30;;
13566;SDS011;6855;48.112;11.298;2024-03-22T06:41:41;14.87;;;8.70;;
13566;SDS011;6855;48.112;11.298;2024-03-22T06:44:08;13.83;;;9.00;;
13566;SDS011;6855;48.112;11.298;2024-03-22T06:46:37;14.53;;;9.63;;
13566;SDS011;6855;48.112;11.298;2024-03-22T06:49:04;14.37;;;8.40;;
13566;SDS011;6855;48.112;11.298;2024-03-22T06:51:30;15.93;;;8.70;;
13566;SDS011;6855;48.112;11.298;2024-03-22T06:53:57;11.70;;;8.57;;
13566;SDS011;6855;48.112;11.298;2024-03-22T06:56:23;14.23;;;8.20;;
13566;SDS011;6855;48.112;11.298;2024-03-22T06:58:52;12.43;;;9.07;;
13566;SDS011;6855;48.112;11.298;2024-03-22T07:01:18;16.27;;;8.07;;
13566;SDS011;6855;48.112;11.298;2024-03-22T07:03:46;9.33;;;7.83;;
13566;SDS011;6855;48.112;11.298;2024-03-22T07:06:13;9.17;;;7.43;;
13566;SDS011;6855;48.112;11.298;2024-03-22T07:08:40;11.47;;;8.00;;
13566;SDS011;6855;48.112;11.298;2024-03-22T07:11:07;11.70;;;7.93;;
13566;SDS011;6855;48.112;11.298;2024-03-22T07:13:34;10.90;;;7.90;;
13566;SDS011;6855;48.112;11.298;2024-03-22T07:16:02;11.77;;;7.83;;
13566;SDS011;6855;48.112;11.298;2024-03-22T07:18:29;13.33;;;7.73;;
13566;SDS011;6855;48.112;11.298;2024-03-22T07:20:56;14.00;;;7.60;;
13566;SDS011;6855;48.112;11.298;2024-03-22T07:23:26;9.67;;;6.97;;
13566;SDS011;6855;48.112;11.298;2024-03-22T07:25:52;9.30;;;6.80;;
13566;SDS011;6855;48.112;11.298;2024-03-22T07:28:19;9.43;;;6.87;;
13566;SDS011;6855;48.112;11.298;2024-03-22T07:30:46;10.07;;;6.70;;
13566;SDS011;6855;48.112;11.298;2024-03-22T07:33:15;8.13;;;6.20;;
13566;SDS011;6855;48.112;11.298;2024-03-22T07:35:43;12.10;;;6.60;;
13566;SDS011;6855;48.112;11.298;2024-03-22T07:38:10;6.83;;;5.73;;
13566;SDS011;6855;48.112;11.298;2024-03-22T07:40:36;10.00;;;6.27;;
13566;SDS011;6855;48.112;11.298;2024-03-22T07:43:03;7.80;;;5.10;;
13566;SDS011;6855;48.112;11.298;2024-03-22T07:45:32;8.37;;;6.43;;
13566;SDS011;6855;48.112;11.298;2024-03-22T07:47:59;6.93;;;5.30;;
13566;SDS011;6855;48.112;11.298;2024-03-22T07:50:26;7.00;;;4.87;;
13566;SDS011;6855;48.112;11.298;2024-03-22T07:52:54;7.23;;;4.80;;
13566;SDS011;6855;48.112;11.298;2024-03-22T07:55:20;6.93;;;5.10;;
13566;SDS011;6855;48.112;11.298;2024-03-22T07:57:47;5.27;;;4.37;;
13566;SDS011;6855;48.112;11.298;2024-03-22T08:00:13;5.33;;;3.90;;
13566;SDS011;6855;48.112;11.298;2024-03-22T08:02:41;4.53;;;3.37;;
13566;SDS011;6855;48.112;11.298;2024-03-22T08:05:07;6.10;;;4.07;;
13566;SDS011;6855;48.112;11.298;2024-03-22T08:07:36;4.60;;;3.27;;
13566;SDS011;6855;48.112;11.298;2024-03-22T08:10:02;5.17;;;3.30;;
13566;SDS011;6855;48.112;11.298;2024-03-22T08:12:29;4.67;;;3.23;;
13566;SDS011;6855;48.112;11.298;2024-03-22T08:14:55;5.23;;;3.37;;
13566;SDS011;6855;48.112;11.298;2024-03-22T08:17:23;6.63;;;3.10;;
13566;SDS011;6855;48.112;11.298;2024-03-22T08:19:49;3.53;;;3.23;;
13566;SDS011;6855;48.112;11.298;2024-03-22T08:22:16;5.83;;;3.17;;
13566;SDS011;6855;48.112;11.298;2024-03-22T08:24:44;3.90;;;3.37;;
13566;SDS011;6855;48.112;11.298;2024-03-22T08:27:11;5.30;;;3.53;;
13566;SDS011;6855;48.112;11.298;2024-03-22T08:29:37;4.07;;;2.93;;
13566;SDS011;6855;48.112;11.298;2024-03-22T08:32:05;3.63;;;3.30;;
13566;SDS011;6855;48.112;11.298;2024-03-22T08:34:31;4.40;;;3.47;;
13566;SDS011;6855;48.112;11.298;2024-03-22T08:36:58;4.10;;;3.70;;
13566;SDS011;6855;48.112;11.298;2024-03-22T08:39:24;5.50;;;3.57;;
13566;SDS011;6855;48.112;11.298;2024-03-22T08:41:53;7.17;;;3.57;;
13566;SDS011;6855;48.112;11.298;2024-03-22T08:44:20;6.90;;;3.63;;
13566;SDS011;6855;48.112;11.298;2024-03-22T08:46:47;9.63;;;4.20;;
13566;SDS011;6855;48.112;11.298;2024-03-22T08:49:15;5.50;;;3.13;;
13566;SDS011;6855;48.112;11.298;2024-03-22T08:51:44;5.10;;;3.13;;
13566;SDS011;6855;48.112;11.298;2024-03-22T08:54:11;5.17;;;3.33;;
13566;SDS011;6855;48.112;11.298;2024-03-22T08:56:38;7.10;;;3.70;;
13566;SDS011;6855;48.112;11.298;2024-03-22T08:59:06;8.77;;;3.10;;
13566;SDS011;6855;48.112;11.298;2024-03-22T09:01:33;8.20;;;3.20;;
13566;SDS011;6855;48.112;11.298;2024-03-22T09:04:00;5.03;;;3.53;;
13566;SDS011;6855;48.112;11.298;2024-03-22T09:06:27;5.03;;;3.00;;
13566;SDS011;6855;48.112;11.298;2024-03-22T09:08:54;3.33;;;2.93;;
13566;SDS011;6855;48.112;11.298;2024-03-22T09:11:23;4.43;;;3.17;;
13566;SDS011;6855;48.112;11.298;2024-03-22T09:13:51;3.83;;;2.77;;
13566;SDS011;6855;48.112;11.298;2024-03-22T09:16:19;3.80;;;2.70;;
13566;SDS011;6855;48.112;11.298;2024-03-22T09:18:45;4.70;;;2.70;;
13566;SDS011;6855;48.112;11.298;2024-03-22T09:21:13;3.63;;;3.13;;
13566;SDS011;6855;48.112;11.298;2024-03-22T09:23:39;3.67;;;3.10;;
13566;SDS011;6855;48.112;11.298;2024-03-22T09:26:06;4.00;;;2.90;;
13566;SDS011;6855;48.112;11.298;2024-03-22T09:28:32;4.80;;;2.83;;
13566;SDS011;6855;48.112;11.298;2024-03-22T09:31:03;4.57;;;2.93;;
13566;SDS011;6855;48.112;11.298;2024-03-22T09:33:30;4.03;;;3.10;;
13566;SDS011;6855;48.112;11.298;2024-03-22T09:35:57;4.10;;;2.80;;
13566;SDS011;6855;48.112;11.298;2024-03-22T09:38:24;5.47;;;3.73;;
13566;SDS011;6855;48.112;11.298;2024-03-22T09:40:51;5.43;;;3.17;;
13566;SDS011;6855;48.112;11.298;2024-03-22T09:43:19;5.47;;;3.30;;
13566;SDS011;6855;48.112;11.298;2024-03-22T09:45:47;4.27;;;3.33;;
13566;SDS011;6855;48.112;11.298;2024-03-22T09:48:13;3.50;;;3.20;;
13566;SDS011;6855;48.112;11.298;2024-03-22T09:50:42;4.47;;;3.50;;
13566;SDS011;6855;48.112;11.298;2024-03-22T09:53:08;3.60;;;3.30;;
13566;SDS011;6855;48.112;11.298;2024-03-22T09:55:36;4.83;;;3.40;;
13566;SDS011;6855;48.112;11.298;2024-03-22T09:58:04;5.80;;;3.43;;
13566;SDS011;6855;48.112;11.298;2024-03-22T10:00:32;5.90;;;3.43;;
13566;SDS011;6855;48.112;11.298;2024-03-22T10:02:58;3.37;;;3.00;;
13566;SDS011;6855;48.112;11.298;2024-03-22T10:05:25;5.57;;;3.37;;
13566;SDS011;6855;48.112;11.298;2024-03-22T10:07:53;4.00;;;2.80;;
13566;SDS011;6855;48.112;11.298;2024-03-22T10:10:21;4.20;;;3.13;;
13566;SDS011;6855;48.112;11.298;2024-03-22T10:12:48;5.10;;;3.47;;
13566;SDS011;6855;48.112;11.298;2024-03-22T10:15:15;6.80;;;2.93;;
13566;SDS011;6855;48.112;11.298;2024-03-22T10:17:42;3.33;;;2.83;;
13566;SDS011;6855;48.112;11.298;2024-03-22T10:20:12;5.83;;;3.97;;
13566;SDS011;6855;48.112;11.298;2024-03-22T10:22:41;4.33;;;3.20;;
13566;SDS011;6855;48.112;11.298;2024-03-22T10:25:10;5.20;;;3.57;;
13566;SDS011;6855;48.112;11.298;2024-03-22T10:27:37;6.80;;;3.30;;
13566;SDS011;6855;48.112;11.298;2024-03-22T10:30:06;5.90;;;2.87;;
13566;SDS011;6855;48.112;11.298;2024-03-22T10:32:33;4.73;;;3.53;;
13566;SDS011;6855;48.112;11.298;2024-03-22T10:35:01;4.00;;;3.20;;
13566;SDS011;6855;48.112;11.298;2024-03-22T10:37:30;4.33;;;2.93;;
13566;SDS011;6855;48.112;11.298;2024-03-22T10:39:59;4.17;;;3.10;;
13566;SDS011;6855;48.112;11.298;2024-03-22T10:42:29;5.60;;;3.10;;
13566;SDS011;6855;48.112;11.298;2024-03-22T10:44:56;3.93;;;3.20;;
13566;SDS011;6855;48.112;11.298;2024-03-22T10:47:22;3.70;;;3.13;;
13566;SDS011;6855;48.112;11.298;2024-03-22T10:49:51;2.70;;;2.50;;
13566;SDS011;6855;48.112;11.298;2024-03-22T10:52:19;5.13;;;2.97;;
13566;SDS011;6855;48.112;11.298;2024-03-22T10:54:46;5.10;;;3.20;;
13566;SDS011;6855;48.112;11.298;2024-03-22T10:57:14;3.80;;;3.37;;
13566;SDS011;6855;48.112;11.298;2024-03-22T10:59:43;3.53;;;2.77;;
13566;SDS011;6855;48.112;11.298;2024-03-22T11:02:10;6.30;;;2.70;;
13566;SDS011;6855;48.112;11.298;2024-03-22T11:04:38;4.83;;;2.83;;
13566;SDS011;6855;48.112;11.298;2024-03-22T11:07:04;7.43;;;3.80;;
13566;SDS011;6855;48.112;11.298;2024-03-22T11:09:33;3.53;;;3.03;;
13566;SDS011;6855;48.112;11.298;2024-03-22T11:11:59;6.50;;;2.97;;
13566;SDS011;6855;48.112;11.298;2024-03-22T11:14:26;3.47;;;2.77;;
13566;SDS011;6855;48.112;11.298;2024-03-22T11:16:55;8.90;;;3.07;;
13566;SDS011;6855;48.112;11.298;2024-03-22T11:19:22;3.03;;;2.73;;
13566;SDS011;6855;48.112;11.298;2024-03-22T11:21:48;4.40;;;3.00;;
13566;SDS011;6855;48.112;11.298;2024-03-22T11:24:15;3.87;;;2.80;;
13566;SDS011;6855;48.112;11.298;2024-03-22T11:26:42;4.77;;;3.10;;
13566;SDS011;6855;48.112;11.298;2024-03-22T11:29:10;6.13;;;2.90;;
13566;SDS011;6855;48.112;11.298;2024-03-22T11:31:36;3.53;;;3.13;;
13566;SDS011;6855;48.112;11.298;2024-03-22T11:34:05;5.67;;;2.63;;
13566;SDS011;6855;48.112;11.298;2024-03-22T11:36:31;5.30;;;3.10;;
13566;SDS011;6855;48.112;11.298;2024-03-22T11:38:58;4.13;;;2.93;;
13566;SDS011;6855;48.112;11.298;2024-03-22T11:41:25;6.03;;;3.07;;
13566;SDS011;6855;48.112;11.298;2024-03-22T11:43:52;6.00;;;3.30;;
13566;SDS011;6855;48.112;11.298;2024-03-22T11:46:19;4.47;;;3.70;;
13566;SDS011;6855;48.112;11.298;2024-03-22T11:48:50;4.20;;;3.20;;
13566;SDS011;6855;48.112;11.298;2024-03-22T11:51:18;3.43;;;3.10;;
13566;SDS011;6855;48.112;11.298;2024-03-22T11:53:48;10.07;;;3.50;;
13566;SDS011;6855;48.112;11.298;2024-03-22T11:56:17;4.40;;;3.53;;
13566;SDS011;6855;48.112;11.298;2024-03-22T11:58:45;5.60;;;3.47;;
13566;SDS011;6855;48.112;11.298;2024-03-22T12:01:12;4.00;;;3.60;;
13566;SDS011;6855;48.112;11.298;2024-03-22T12:03:38;3.40;;;3.10;;
13566;SDS011;6855;48.112;11.298;2024-03-22T12:06:08;4.10;;;3.50;;
13566;SDS011;6855;48.112;11.298;2024-03-22T12:08:36;4.73;;;3.00;;
13566;SDS011;6855;48.112;11.298;2024-03-22T12:11:05;4.83;;;2.90;;
13566;SDS011;6855;48.112;11.298;2024-03-22T12:13:32;4.83;;;2.90;;
13566;SDS011;6855;48.112;11.298;2024-03-22T12:16:00;3.40;;;2.50;;
13566;SDS011;6855;48.112;11.298;2024-03-22T12:18:26;6.03;;;3.50;;
13566;SDS011;6855;48.112;11.298;2024-03-22T12:20:53;6.10;;;3.33;;
13566;SDS011;6855;48.112;11.298;2024-03-22T12:23:19;3.20;;;2.83;;
13566;SDS011;6855;48.112;11.298;2024-03-22T12:25:49;5.70;;;3.10;;
13566;SDS011;6855;48.112;11.298;2024-03-22T12:28:24;3.10;;;2.50;;
13566;SDS011;6855;48.112;11.298;2024-03-22T12:30:52;4.00;;;2.27;;
13566;SDS011;6855;48.112;11.298;2024-03-22T12:33:18;2.83;;;2.50;;
13566;SDS011;6855;48.112;11.298;2024-03-22T12:35:46;3.63;;;2.50;;
13566;SDS011;6855;48.112;11.298;2024-03-22T12:38:13;5.30;;;2.10;;
13566;SDS011;6855;48.112;11.298;2024-03-22T12:40:40;3.07;;;2.50;;
13566;SDS011;6855;48.112;11.298;2024-03-22T12:43:09;3.20;;;2.90;;
13566;SDS011;6855;48.112;11.298;2024-03-22T12:45:37;3.03;;;2.47;;
13566;SDS011;6855;48.112;11.298;2024-03-22T12:48:03;3.40;;;2.43;;
13566;SDS011;6855;48.112;11.298;2024-03-22T12:50:31;3.87;;;2.70;;
13566;SDS011;6855;48.112;11.298;2024-03-22T12:52:58;3.73;;;2.80;;
13566;SDS011;6855;48.112;11.298;2024-03-22T12:55:25;5.23;;;3.30;;
13566;SDS011;6855;48.112;11.298;2024-03-22T12:57:53;5.07;;;2.60;;
13566;SDS011;6855;48.112;11.298;2024-03-22T13:00:21;3.47;;;2.63;;
13566;SDS011;6855;48.112;11.298;2024-03-22T13:02:48;3.30;;;2.60;;
13566;SDS011;6855;48.112;11.298;2024-03-22T13:05:15;3.63;;;2.47;;
13566;SDS011;6855;48.112;11.298;2024-03-22T13:07:41;2.70;;;2.50;;
13566;SDS011;6855;48.112;11.298;2024-03-22T13:10:09;3.77;;;2.60;;
13566;SDS011;6855;48.112;11.298;2024-03-22T13:12:35;4.23;;;2.67;;
13566;SDS011;6855;48.112;11.298;2024-03-22T13:15:03;4.13;;;3.03;;
13566;SDS011;6855;48.112;11.298;2024-03-22T13:17:30;2.43;;;2.10;;
13566;SDS011;6855;48.112;11.298;2024-03-22T13:19:58;6.37;;;2.50;;
13566;SDS011;6855;48.112;11.298;2024-03-22T13:22:25;5.70;;;2.50;;
13566;SDS011;6855;48.112;11.298;2024-03-22T13:24:52;3.13;;;2.37;;
13566;SDS011;6855;48.112;11.298;2024-03-22T13:27:18;3.97;;;2.50;;
13566;SDS011;6855;48.112;11.298;2024-03-22T13:29:47;3.90;;;2.50;;
13566;SDS011;6855;48.112;11.298;2024-03-22T13:32:14;3.80;;;2.20;;
13566;SDS011;6855;48.112;11.298;2024-03-22T13:34:43;4.43;;;3.20;;
13566;SDS011;6855;48.112;11.298;2024-03-22T13:37:09;3.90;;;2.43;;
13566;SDS011;6855;48.112;11.298;2024-03-22T13:39:36;2.67;;;2.47;;
13566;SDS011;6855;48.112;11.298;2024-03-22T13:42:02;3.80;;;2.03;;
13566;SDS011;6855;48.112;11.298;2024-03-22T13:44:32;5.27;;;2.57;;
13566;SDS011;6855;48.112;11.298;2024-03-22T13:46:58;3.73;;;2.40;;
13566;SDS011;6855;48.112;11.298;2024-03-22T13:49:25;2.77;;;2.17;;
13566;SDS011;6855;48.112;11.298;2024-03-22T13:51:52;2.80;;;2.17;;
13566;SDS011;6855;48.112;11.298;2024-03-22T13:54:20;3.17;;;1.83;;
13566;SDS011;6855;48.112;11.298;2024-03-22T13:56:47;3.43;;;1.50;;
13566;SDS011;6855;48.112;11.298;2024-03-22T13:59:14;1.63;;;1.40;;
13566;SDS011;6855;48.112;11.298;2024-03-22T14:01:41;1.43;;;1.23;;
13566;SDS011;6855;48.112;11.298;2024-03-22T14:04:10;1.63;;;1.53;;
13566;SDS011;6855;48.112;11.298;2024-03-22T14:06:37;5.33;;;1.73;;
13566;SDS011;6855;48.112;11.298;2024-03-22T14:09:05;2.20;;;1.50;;
13566;SDS011;6855;48.112;11.298;2024-03-22T14:11:35;1.50;;;1.40;;
13566;SDS011;6855;48.112;11.298;2024-03-22T14:14:02;5.43;;;2.00;;
13566;SDS011;6855;48.112;11.298;2024-03-22T14:16:28;5.27;;;2.30;;
13566;SDS011;6855;48.112;11.298;2024-03-22T14:18:56;3.80;;;1.67;;
13566;SDS011;6855;48.112;11.298;2024-03-22T14:21:23;2.00;;;1.80;;
13566;SDS011;6855;48.112;11.298;2024-03-22T14:23:50;4.00;;;1.70;;
13566;SDS011;6855;48.112;11.298;2024-03-22T14:26:18;1.70;;;1.60;;
13566;SDS011;6855;48.112;11.298;2024-03-22T14:28:45;2.07;;;1.70;;
13566;SDS011;6855;48.112;11.298;2024-03-22T14:31:12;1.93;;;1.30;;
13566;SDS011;6855;48.112;11.298;2024-03-22T14:33:39;2.77;;;1.40;;
13566;SDS011;6855;48.112;11.298;2024-03-22T14:36:06;1.80;;;1.70;;